createdAt,value
2023-03-31T00:00:54.742Z,89.59
2023-03-31T00:03:25.358Z,89.77
2023-03-31T00:05:59.433Z,89.28
2023-03-31T00:08:30.740Z,89.40
2023-03-31T00:11:00.985Z,89.25
2023-03-31T00:13:28.715Z,89.92
2023-03-31T00:16:04.591Z,89.37
2023-03-31T00:18:36.215Z,88.59
2023-03-31T00:21:14.952Z,87.73
2023-03-31T00:23:42.226Z,88.86
2023-03-31T00:26:09.393Z,88.92
2023-03-31T00:28:39.109Z,88.37
2023-03-31T00:31:06.104Z,87.68
2023-03-31T00:33:33.164Z,88.13
2023-03-31T00:36:06.646Z,88.26
2023-03-31T00:38:33.899Z,87.78
2023-03-31T00:41:01.448Z,87.34
2023-03-31T00:43:31.688Z,87.72
2023-03-31T00:46:14.113Z,88.02
2023-03-31T00:48:51.715Z,87.61
2023-03-31T00:51:20.256Z,87.37
2023-03-31T00:53:55.669Z,87.83
2023-03-31T00:56:22.595Z,87.73
2023-03-31T00:58:50.241Z,87.05
2023-03-31T01:01:20.891Z,87.70
2023-03-31T01:03:48.370Z,87.61
2023-03-31T01:06:20.173Z,87.33
2023-03-31T01:08:49.232Z,87.38
2023-03-31T01:11:20.164Z,86.68
2023-03-31T01:13:51.182Z,86.24
2023-03-31T01:16:19.099Z,86.45
2023-03-31T01:18:49.938Z,87.01
2023-03-31T01:21:40.333Z,86.84
2023-03-31T01:24:47.529Z,86.33
2023-03-31T01:27:37.524Z,86.52
2023-03-31T01:30:07.560Z,86.83
2023-03-31T01:33:21.955Z,85.82
2023-03-31T01:36:13.713Z,86.04
2023-03-31T01:39:19.151Z,86.52
2023-03-31T01:42:21.952Z,86.14
2023-03-31T01:44:51.451Z,85.74
2023-03-31T01:47:31.833Z,85.60
2023-03-31T01:50:07.295Z,85.40
2023-03-31T01:53:23.737Z,86.00
2023-03-31T01:56:04.804Z,86.25
2023-03-31T01:58:42.539Z,85.89
2023-03-31T02:01:37.486Z,85.82
2023-03-31T02:04:22.772Z,85.54
2023-03-31T02:07:01.740Z,85.76
2023-03-31T02:09:35.599Z,86.27
2023-03-31T02:12:06.557Z,85.56
2023-03-31T02:14:35.722Z,84.72
2023-03-31T02:17:04.076Z,84.54
2023-03-31T02:19:37.012Z,85.31
2023-03-31T02:22:07.515Z,85.02
2023-03-31T02:24:37.324Z,84.97
2023-03-31T02:27:10.495Z,85.25
2023-03-31T02:29:37.510Z,85.45
2023-03-31T02:32:14.488Z,86.15
2023-03-31T02:34:41.753Z,84.81
2023-03-31T02:37:09.129Z,85.60
2023-03-31T02:39:39.767Z,86.27
2023-03-31T02:42:09.943Z,86.07
2023-03-31T02:44:38.562Z,86.81
2023-03-31T02:47:09.737Z,86.49
2023-03-31T02:49:40.601Z,87.00
2023-03-31T02:52:18.360Z,86.09
2023-03-31T02:54:58.519Z,86.95
2023-03-31T02:58:04.344Z,85.96
2023-03-31T03:01:28.294Z,85.82
2023-03-31T03:04:34.438Z,85.54
2023-03-31T03:07:39.999Z,85.96
2023-03-31T03:10:36.389Z,85.57
2023-03-31T03:13:24.392Z,85.12
2023-03-31T03:16:04.530Z,85.86
2023-03-31T03:18:32.084Z,85.94
2023-03-31T03:20:59.007Z,85.20
2023-03-31T03:23:26.125Z,85.67
2023-03-31T03:25:52.985Z,85.27
2023-03-31T03:28:20.230Z,85.33
2023-03-31T03:30:47.500Z,85.80
2023-03-31T03:33:17.477Z,85.70
2023-03-31T03:35:44.636Z,85.65
2023-03-31T03:38:11.676Z,85.33
2023-03-31T03:40:38.710Z,84.67
2023-03-31T03:43:05.803Z,85.52
2023-03-31T03:45:32.830Z,85.69
2023-03-31T03:47:59.796Z,85.20
2023-03-31T03:50:26.945Z,86.41
2023-03-31T03:52:54.506Z,86.85
2023-03-31T03:55:21.376Z,86.07
2023-03-31T03:57:50.351Z,86.24
2023-03-31T04:00:17.298Z,86.84
2023-03-31T04:02:44.165Z,86.21
2023-03-31T04:05:11.229Z,86.17
2023-03-31T04:07:38.195Z,86.10
2023-03-31T04:10:06.913Z,86.37
2023-03-31T04:12:37.176Z,86.17
2023-03-31T04:15:04.659Z,86.99
2023-03-31T04:17:35.259Z,86.42
2023-03-31T04:20:05.866Z,86.44
2023-03-31T04:22:35.680Z,85.72
2023-03-31T04:25:04.726Z,87.00
2023-03-31T04:27:34.053Z,87.04
2023-03-31T04:30:01.015Z,87.47
2023-03-31T04:32:28.648Z,87.24
2023-03-31T04:35:03.561Z,87.17
2023-03-31T04:37:35.039Z,87.23
2023-03-31T04:40:08.065Z,87.29
2023-03-31T04:42:35.279Z,87.88
2023-03-31T04:45:03.158Z,88.84
2023-03-31T04:47:30.093Z,88.90
2023-03-31T04:49:56.992Z,88.61
2023-03-31T04:52:24.084Z,88.50
2023-03-31T04:54:51.292Z,88.91
2023-03-31T04:57:18.371Z,89.15
2023-03-31T04:59:45.338Z,89.27
2023-03-31T05:02:12.346Z,89.01
2023-03-31T05:04:39.186Z,88.94
2023-03-31T05:07:06.185Z,88.96
2023-03-31T05:09:34.644Z,88.09
2023-03-31T05:12:01.951Z,89.42
2023-03-31T05:14:28.846Z,88.78
2023-03-31T05:16:58.259Z,89.51
2023-03-31T05:19:25.726Z,88.96
2023-03-31T05:21:52.811Z,89.54
2023-03-31T05:24:19.724Z,89.71
2023-03-31T05:26:51.731Z,88.91
2023-03-31T05:29:19.745Z,89.53
2023-03-31T05:31:47.550Z,89.50
2023-03-31T05:34:15.193Z,88.98
2023-03-31T05:36:44.101Z,89.38
2023-03-31T05:39:11.024Z,88.70
2023-03-31T05:41:37.887Z,88.95
2023-03-31T05:44:04.828Z,88.05
2023-03-31T05:46:32.172Z,88.88
2023-03-31T05:49:00.018Z,88.42
2023-03-31T05:51:27.012Z,88.03
2023-03-31T05:53:54.138Z,87.94
2023-03-31T05:56:22.430Z,87.62
2023-03-31T05:58:49.258Z,87.94
2023-03-31T06:01:23.151Z,87.86
2023-03-31T06:03:50.531Z,87.13
2023-03-31T06:06:17.447Z,86.44
2023-03-31T06:08:46.194Z,87.75
2023-03-31T06:11:19.689Z,86.62
2023-03-31T06:13:47.544Z,86.51
2023-03-31T06:16:17.255Z,86.30
2023-03-31T06:18:44.788Z,87.27
2023-03-31T06:21:14.572Z,86.77
2023-03-31T06:23:41.942Z,86.43
2023-03-31T06:26:09.651Z,86.96
2023-03-31T06:28:36.700Z,86.14
2023-03-31T06:31:09.849Z,86.40
2023-03-31T06:33:36.917Z,86.02
2023-03-31T06:36:05.951Z,86.50
2023-03-31T06:38:35.620Z,86.52
2023-03-31T06:41:03.045Z,86.68
2023-03-31T06:43:30.219Z,86.04
2023-03-31T06:45:57.332Z,85.22
2023-03-31T06:48:25.549Z,84.86
2023-03-31T06:50:54.447Z,84.40
2023-03-31T06:53:22.424Z,83.52
2023-03-31T06:55:49.427Z,83.02
2023-03-31T06:58:16.523Z,82.76
2023-03-31T07:00:45.499Z,83.05
2023-03-31T07:03:13.664Z,83.15
2023-03-31T07:05:41.376Z,83.39
2023-03-31T07:08:08.223Z,82.98
2023-03-31T07:10:35.042Z,83.04
2023-03-31T07:13:04.415Z,82.19
2023-03-31T07:15:32.312Z,81.93
2023-03-31T07:18:02.291Z,81.55
2023-03-31T07:20:30.786Z,81.61
2023-03-31T07:22:58.029Z,81.07
2023-03-31T07:25:25.182Z,80.54
2023-03-31T07:27:52.200Z,80.90
2023-03-31T07:30:20.332Z,79.83
2023-03-31T07:32:49.061Z,79.21
2023-03-31T07:35:17.172Z,78.74
2023-03-31T07:37:46.962Z,78.31
2023-03-31T07:40:17.092Z,77.67
2023-03-31T07:42:46.477Z,77.63
2023-03-31T07:45:16.844Z,78.00
2023-03-31T07:47:45.017Z,78.22
2023-03-31T07:50:12.370Z,78.89
2023-03-31T07:52:40.559Z,80.15
2023-03-31T07:55:09.509Z,81.36
2023-03-31T07:57:37.126Z,81.41
2023-03-31T08:00:10.990Z,82.83
2023-03-31T08:02:38.813Z,84.71
2023-03-31T08:05:07.419Z,84.85
2023-03-31T08:07:39.418Z,84.57
2023-03-31T08:10:09.056Z,85.10
2023-03-31T08:12:36.132Z,83.47
2023-03-31T08:15:03.627Z,83.91
2023-03-31T08:17:30.830Z,84.53
2023-03-31T08:19:59.741Z,83.92
2023-03-31T08:22:28.605Z,85.03
2023-03-31T08:24:55.881Z,85.21
2023-03-31T08:27:22.638Z,84.68
2023-03-31T08:29:50.227Z,85.74
2023-03-31T08:32:17.216Z,85.80
2023-03-31T08:34:44.064Z,86.27
2023-03-31T08:37:12.845Z,85.35
2023-03-31T08:39:39.990Z,85.77
2023-03-31T08:42:20.370Z,85.55
2023-03-31T08:45:26.724Z,85.89
2023-03-31T08:48:04.062Z,85.53
2023-03-31T08:50:36.815Z,86.04
2023-03-31T08:53:14.045Z,85.66
2023-03-31T08:55:54.728Z,85.54
2023-03-31T08:58:42.381Z,86.55
2023-03-31T09:01:32.408Z,84.89
2023-03-31T09:04:24.214Z,86.02
2023-03-31T09:07:11.062Z,85.99
2023-03-31T09:10:19.980Z,86.04
2023-03-31T09:13:23.066Z,84.71
2023-03-31T09:16:01.574Z,84.75
2023-03-31T09:18:33.049Z,84.70
2023-03-31T09:21:10.854Z,85.69
2023-03-31T09:23:51.580Z,86.48
2023-03-31T09:26:27.616Z,86.08
2023-03-31T09:28:58.057Z,85.72
2023-03-31T09:31:25.134Z,84.90
2023-03-31T09:33:59.695Z,84.46
2023-03-31T09:36:26.475Z,83.86
2023-03-31T09:38:53.490Z,82.92
2023-03-31T09:41:20.943Z,82.27
2023-03-31T09:43:52.488Z,81.65
2023-03-31T09:46:29.222Z,83.13
2023-03-31T09:49:02.805Z,82.66
2023-03-31T09:51:33.635Z,83.23
2023-03-31T09:54:14.864Z,82.99
2023-03-31T09:56:49.237Z,81.55
2023-03-31T09:59:21.114Z,80.82
2023-03-31T10:01:52.066Z,81.54
2023-03-31T10:04:25.721Z,80.38
2023-03-31T10:06:53.954Z,82.14
2023-03-31T10:09:25.268Z,83.37
2023-03-31T10:11:58.427Z,82.94
2023-03-31T10:14:32.920Z,82.65
2023-03-31T10:17:06.063Z,79.99
2023-03-31T10:19:36.732Z,81.37
2023-03-31T10:22:16.296Z,82.01
2023-03-31T10:24:45.720Z,81.05
2023-03-31T10:27:26.727Z,80.51
2023-03-31T10:30:02.426Z,80.74
2023-03-31T10:32:32.384Z,81.23
2023-03-31T10:35:09.283Z,80.85
2023-03-31T10:37:37.983Z,79.25
2023-03-31T10:40:21.334Z,78.87
2023-03-31T10:42:58.883Z,79.97
2023-03-31T10:45:37.016Z,79.76
2023-03-31T10:48:07.266Z,80.35
2023-03-31T10:50:36.627Z,81.68
2023-03-31T10:53:22.329Z,81.11
2023-03-31T10:56:08.190Z,80.57
2023-03-31T10:59:05.711Z,79.29
2023-03-31T11:02:31.373Z,77.82
2023-03-31T11:05:16.086Z,77.32
2023-03-31T11:08:32.284Z,75.50
2023-03-31T11:11:32.303Z,76.21
2023-03-31T11:14:24.604Z,77.07
2023-03-31T11:17:11.799Z,78.84
2023-03-31T11:20:07.118Z,79.03
2023-03-31T11:22:44.774Z,81.05
2023-03-31T11:25:32.075Z,81.05
2023-03-31T11:28:04.643Z,81.84
2023-03-31T11:30:39.957Z,82.36
2023-03-31T11:33:44.400Z,82.08
2023-03-31T11:36:46.732Z,82.00
2023-03-31T11:39:51.353Z,81.20
2023-03-31T11:42:27.723Z,81.42
2023-03-31T11:45:04.658Z,82.70
2023-03-31T11:47:38.047Z,81.08
2023-03-31T11:50:11.700Z,82.81
2023-03-31T11:52:43.679Z,82.78
2023-03-31T11:55:19.560Z,82.72
2023-03-31T11:58:13.221Z,84.50
2023-03-31T12:01:22.252Z,85.83
2023-03-31T12:03:58.135Z,86.28
2023-03-31T12:06:30.883Z,85.78
2023-03-31T12:09:21.812Z,85.73
2023-03-31T12:11:59.999Z,86.52
2023-03-31T12:14:42.378Z,85.03
2023-03-31T12:17:23.278Z,86.35
2023-03-31T12:19:53.841Z,85.96
2023-03-31T12:22:39.316Z,85.09
2023-03-31T12:25:06.750Z,87.15
2023-03-31T12:27:41.966Z,86.80
2023-03-31T12:30:37.917Z,87.34
2023-03-31T12:33:27.361Z,86.96
2023-03-31T12:36:13.597Z,86.00
2023-03-31T12:39:09.193Z,85.50
2023-03-31T12:42:03.222Z,86.38
2023-03-31T12:44:40.441Z,85.55
2023-03-31T12:47:13.377Z,86.08
2023-03-31T12:49:58.798Z,84.97
2023-03-31T12:52:46.909Z,84.22
2023-03-31T12:55:37.460Z,81.25
2023-03-31T12:58:22.970Z,80.87
2023-03-31T13:01:11.294Z,81.19
2023-03-31T13:04:04.947Z,82.66
2023-03-31T13:06:31.896Z,81.69
2023-03-31T13:09:02.871Z,83.07
2023-03-31T13:11:38.499Z,84.17
2023-03-31T13:14:14.111Z,83.79
2023-03-31T13:16:41.257Z,83.02
2023-03-31T13:19:10.658Z,82.92
2023-03-31T13:21:55.710Z,83.00
2023-03-31T13:24:24.531Z,82.65
2023-03-31T13:26:54.885Z,80.48
2023-03-31T13:29:42.204Z,80.64
2023-03-31T13:32:26.308Z,79.19
2023-03-31T13:34:59.489Z,80.00
2023-03-31T13:38:03.448Z,80.30
2023-03-31T13:40:45.310Z,79.74
2023-03-31T13:43:23.934Z,79.56
2023-03-31T13:46:28.605Z,79.30
2023-03-31T13:49:04.580Z,78.31
2023-03-31T13:52:05.726Z,77.20
2023-03-31T13:55:06.899Z,80.26
2023-03-31T13:57:58.434Z,80.67
2023-03-31T14:00:29.016Z,82.20
2023-03-31T14:03:20.068Z,82.48
2023-03-31T14:06:21.160Z,82.14
2023-03-31T14:08:51.602Z,81.64
2023-03-31T14:11:21.797Z,80.57
2023-03-31T14:14:02.051Z,80.31
2023-03-31T14:16:31.880Z,79.12
2023-03-31T14:19:09.069Z,80.24
2023-03-31T14:21:58.979Z,80.10
2023-03-31T14:24:49.036Z,78.38
2023-03-31T14:27:40.937Z,77.70
2023-03-31T14:30:30.132Z,77.15
2023-03-31T14:33:04.200Z,76.70
2023-03-31T14:35:39.004Z,77.11
2023-03-31T14:38:19.404Z,75.38
2023-03-31T14:40:49.922Z,74.09
2023-03-31T14:43:29.901Z,73.52
2023-03-31T14:46:01.995Z,73.97
2023-03-31T14:48:32.158Z,75.50
2023-03-31T14:51:02.359Z,74.52
2023-03-31T14:53:29.579Z,75.48
2023-03-31T14:56:07.214Z,78.11
2023-03-31T14:58:38.674Z,81.21
2023-03-31T15:01:07.611Z,82.20
2023-03-31T15:03:42.049Z,80.42
2023-03-31T15:06:09.868Z,80.50
2023-03-31T15:08:38.350Z,80.35
2023-03-31T15:13:46.927Z,81.01
2023-03-31T15:16:46.330Z,81.62
2023-03-31T15:19:25.148Z,81.18
2023-03-31T15:22:19.696Z,81.33
2023-03-31T15:24:49.270Z,81.40
2023-03-31T15:27:43.520Z,81.91
2023-03-31T15:30:21.150Z,81.91
2023-03-31T15:32:48.512Z,81.14
2023-03-31T15:35:27.915Z,80.90
2023-03-31T15:37:57.271Z,80.65
2023-03-31T15:40:32.939Z,80.81
2023-03-31T15:43:24.563Z,80.31
2023-03-31T15:46:00.804Z,79.68
2023-03-31T15:48:37.460Z,79.91
2023-03-31T15:51:17.585Z,79.38
2023-03-31T15:53:54.024Z,79.65
2023-03-31T15:56:44.007Z,79.55
2023-03-31T15:59:54.702Z,79.40
2023-03-31T16:02:26.716Z,79.28
2023-03-31T16:04:59.683Z,80.26
2023-03-31T16:07:30.449Z,80.69
2023-03-31T16:10:20.813Z,80.44
2023-03-31T16:13:00.954Z,81.63
2023-03-31T16:15:42.190Z,81.15
2023-03-31T16:18:26.738Z,81.83
2023-03-31T16:20:56.198Z,82.02
2023-03-31T16:23:26.814Z,83.13
2023-03-31T16:25:54.478Z,82.90
2023-03-31T16:28:25.024Z,83.92
2023-03-31T16:30:52.471Z,84.12
2023-03-31T16:33:24.696Z,83.99
2023-03-31T16:35:56.130Z,84.76
2023-03-31T16:38:25.309Z,85.70
2023-03-31T16:40:57.791Z,84.56
2023-03-31T16:43:28.934Z,84.63
2023-03-31T16:45:58.471Z,84.88
2023-03-31T16:48:27.556Z,85.03
2023-03-31T16:50:59.269Z,84.94
2023-03-31T16:53:34.048Z,85.36
2023-03-31T16:56:01.381Z,83.44
2023-03-31T16:58:29.413Z,84.45
2023-03-31T17:00:57.774Z,84.53
2023-03-31T17:03:25.350Z,83.27
2023-03-31T17:05:59.259Z,83.33
2023-03-31T17:08:32.113Z,83.31
2023-03-31T17:11:05.559Z,82.44
2023-03-31T17:13:32.912Z,83.13
2023-03-31T17:18:47.577Z,82.18
2023-03-31T17:21:18.516Z,83.93
2023-03-31T17:23:46.686Z,83.34
2023-03-31T17:26:16.751Z,82.91
2023-03-31T17:28:44.005Z,83.70
2023-03-31T17:31:19.954Z,83.02
2023-03-31T17:33:47.709Z,82.72
2023-03-31T17:36:15.950Z,83.38
2023-03-31T17:38:42.954Z,83.22
2023-03-31T17:41:13.114Z,82.51
2023-03-31T17:43:43.979Z,83.24
2023-03-31T17:46:12.945Z,84.54
2023-03-31T17:48:40.477Z,85.04
2023-03-31T17:51:09.403Z,84.20
2023-03-31T17:53:36.976Z,85.05
2023-03-31T17:56:04.956Z,85.03
2023-03-31T17:58:33.317Z,84.74
2023-03-31T18:01:00.664Z,84.65
2023-03-31T18:03:30.384Z,84.96
2023-03-31T18:05:57.206Z,84.47
2023-03-31T18:08:24.095Z,85.30
2023-03-31T18:10:50.985Z,85.58
2023-03-31T18:13:17.814Z,85.37
2023-03-31T18:15:52.705Z,85.07
2023-03-31T18:18:21.622Z,84.74
2023-03-31T18:20:48.410Z,84.83
2023-03-31T18:23:15.201Z,85.62
2023-03-31T18:25:46.467Z,85.46
2023-03-31T18:28:15.650Z,85.17
2023-03-31T18:30:44.188Z,85.33
2023-03-31T18:33:12.993Z,86.46
2023-03-31T18:35:40.441Z,86.42
2023-03-31T18:38:07.958Z,85.48
2023-03-31T18:40:34.999Z,84.79
2023-03-31T18:43:02.837Z,84.88
2023-03-31T18:45:30.999Z,86.22
2023-03-31T18:47:58.742Z,85.88
2023-03-31T18:50:26.173Z,87.02
2023-03-31T18:52:54.860Z,85.67
2023-03-31T18:55:22.702Z,86.66
2023-03-31T18:57:49.937Z,86.00
2023-03-31T19:00:17.557Z,86.03
2023-03-31T19:02:44.842Z,85.45
2023-03-31T19:05:12.676Z,84.91
2023-03-31T19:07:40.851Z,85.09
2023-03-31T19:10:08.416Z,85.80
2023-03-31T19:12:35.641Z,86.99
2023-03-31T19:15:02.587Z,87.23
2023-03-31T19:17:30.169Z,87.32
2023-03-31T19:19:57.412Z,87.84
2023-03-31T19:22:25.846Z,87.90
2023-03-31T19:24:53.489Z,87.79
2023-03-31T19:27:20.385Z,88.58
2023-03-31T19:29:47.245Z,88.77
2023-03-31T19:32:14.539Z,88.64
2023-03-31T19:34:42.680Z,88.66
2023-03-31T19:37:10.340Z,88.40
2023-03-31T19:39:37.721Z,88.05
2023-03-31T19:42:04.669Z,87.93
2023-03-31T19:44:31.651Z,89.11
2023-03-31T19:46:58.911Z,89.93
2023-03-31T19:49:26.019Z,89.68
2023-03-31T19:51:53.553Z,90.04
2023-03-31T19:54:20.687Z,89.81
2023-03-31T19:56:48.494Z,89.77
2023-03-31T19:59:15.418Z,89.70
2023-03-31T20:01:42.624Z,89.29
2023-03-31T20:04:09.718Z,90.32
2023-03-31T20:06:37.367Z,89.51
2023-03-31T20:09:06.595Z,89.47
2023-03-31T20:11:34.050Z,91.02
2023-03-31T20:14:02.033Z,90.38
2023-03-31T20:16:30.953Z,89.79
2023-03-31T20:19:04.646Z,89.84
2023-03-31T20:21:33.823Z,89.68
2023-03-31T20:24:00.853Z,90.12
2023-03-31T20:26:30.267Z,90.10
2023-03-31T20:28:59.155Z,90.78
2023-03-31T20:31:29.069Z,90.76
2023-03-31T20:33:56.626Z,91.23
2023-03-31T20:36:27.533Z,90.58
2023-03-31T20:38:54.398Z,90.51
2023-03-31T20:41:24.001Z,90.72
2023-03-31T20:43:51.205Z,90.51
2023-03-31T20:46:19.185Z,91.11
2023-03-31T20:48:52.282Z,90.51
2023-03-31T20:51:22.366Z,91.06
2023-03-31T20:53:53.309Z,90.24
2023-03-31T20:56:32.102Z,89.70
2023-03-31T20:59:00.183Z,89.52
2023-03-31T21:01:30.340Z,89.86
2023-03-31T21:04:01.487Z,90.34
2023-03-31T21:06:31.361Z,89.59
2023-03-31T21:08:58.752Z,89.41
2023-03-31T21:11:29.622Z,89.79
2023-03-31T21:13:56.596Z,88.80
2023-03-31T21:16:24.119Z,89.25
2023-03-31T21:19:00.048Z,90.12
2023-03-31T21:21:28.013Z,89.64
2023-03-31T21:23:55.829Z,89.16
2023-03-31T21:26:23.407Z,89.30
2023-03-31T21:28:54.500Z,88.90
2023-03-31T21:31:26.250Z,88.61
2023-03-31T21:33:53.890Z,89.05
2023-03-31T21:36:23.006Z,89.87
2023-03-31T21:38:54.303Z,88.77
2023-03-31T21:41:24.489Z,88.93
2023-03-31T21:43:52.582Z,89.43
2023-03-31T21:46:24.967Z,88.26
2023-03-31T21:48:51.948Z,87.89
2023-03-31T21:51:22.260Z,89.56
2023-03-31T21:53:53.392Z,89.59
2023-03-31T21:56:20.497Z,90.43
2023-03-31T21:58:47.425Z,90.35
2023-03-31T22:01:15.039Z,90.29
2023-03-31T22:03:42.625Z,90.45
2023-03-31T22:06:10.737Z,90.81
2023-03-31T22:08:39.242Z,89.29
2023-03-31T22:11:08.394Z,89.93
2023-03-31T22:13:35.846Z,89.32
2023-03-31T22:16:04.359Z,89.83
2023-03-31T22:18:31.463Z,89.51
2023-03-31T22:20:58.564Z,90.28
2023-03-31T22:23:27.833Z,90.74
2023-03-31T22:25:55.004Z,91.20
2023-03-31T22:28:21.879Z,91.08
2023-03-31T22:30:48.923Z,91.40
2023-03-31T22:33:15.955Z,91.10
2023-03-31T22:35:42.847Z,91.52
2023-03-31T22:38:12.990Z,91.63
2023-03-31T22:40:39.926Z,91.35
2023-03-31T22:43:06.795Z,91.36
2023-03-31T22:45:36.687Z,90.90
2023-03-31T22:48:04.480Z,91.47
2023-03-31T22:50:31.919Z,90.96
2023-03-31T22:52:58.832Z,91.03
2023-03-31T22:55:25.598Z,90.86
2023-03-31T22:57:52.511Z,90.58
2023-03-31T23:00:19.717Z,91.00
2023-03-31T23:02:46.585Z,89.45
2023-03-31T23:05:16.655Z,89.57
2023-03-31T23:07:43.943Z,88.99
2023-03-31T23:10:11.540Z,89.74
2023-03-31T23:12:38.615Z,90.12
2023-03-31T23:15:05.866Z,90.73
2023-03-31T23:17:33.019Z,90.42
2023-03-31T23:19:59.873Z,90.15
2023-03-31T23:22:26.856Z,89.90
2023-03-31T23:24:54.048Z,89.69
2023-03-31T23:27:21.298Z,90.67
2023-03-31T23:29:48.408Z,89.45
2023-03-31T23:32:15.751Z,90.29
2023-03-31T23:34:42.917Z,89.38
2023-03-31T23:37:11.346Z,90.50
2023-03-31T23:39:39.139Z,90.45
2023-03-31T23:42:10.074Z,90.78
2023-03-31T23:44:40.016Z,90.56
2023-03-31T23:47:06.934Z,90.99
2023-03-31T23:49:33.843Z,91.02
2023-03-31T23:52:00.983Z,91.21
2023-03-31T23:54:28.127Z,91.02
2023-03-31T23:56:54.967Z,91.33
2023-03-31T23:59:22.025Z,91.51
